sensor_id;sensor_type;location;lat;lon;timestamp;pressure;altitude;pressure_sealevel;temperature;humidity
30516;BME280;17297;54.022;10.760;2022-08-01T00:01:31;101143.13;;;21.59;71.14
30516;BME280;17297;54.022;10.760;2022-08-01T00:03:56;101142.03;;;21.60;71.18
30516;BME280;17297;54.022;10.760;2022-08-01T00:06:22;101144.78;;;21.60;71.16
30516;BME280;17297;54.022;10.760;2022-08-01T00:08:47;101145.59;;;21.61;70.95
30516;BME280;17297;54.022;10.760;2022-08-01T00:11:12;101140.38;;;21.59;71.20
30516;BME280;17297;54.022;10.760;2022-08-01T00:13:38;101140.94;;;21.61;71.17
30516;BME280;17297;54.022;10.760;2022-08-01T00:16:04;101142.34;;;21.64;71.24
30516;BME280;17297;54.022;10.760;2022-08-01T00:18:29;101143.16;;;21.64;71.35
30516;BME280;17297;54.022;10.760;2022-08-01T00:20:54;101135.78;;;21.65;71.31
30516;BME280;17297;54.022;10.760;2022-08-01T00:23:20;101140.19;;;21.66;71.08
30516;BME280;17297;54.022;10.760;2022-08-01T00:25:45;101135.25;;;21.68;70.98
30516;BME280;17297;54.022;10.760;2022-08-01T00:28:10;101135.00;;;21.70;71.38
30516;BME280;17297;54.022;10.760;2022-08-01T00:30:36;101135.00;;;21.70;71.29
30516;BME280;17297;54.022;10.760;2022-08-01T00:33:02;101136.41;;;21.72;71.01
30516;BME280;17297;54.022;10.760;2022-08-01T00:35:27;101139.69;;;21.74;71.27
30516;BME280;17297;54.022;10.760;2022-08-01T00:37:53;101135.06;;;21.75;71.39
30516;BME280;17297;54.022;10.760;2022-08-01T00:40:18;101133.97;;;21.76;71.23
30516;BME280;17297;54.022;10.760;2022-08-01T00:42:43;101128.50;;;21.76;71.31
30516;BME280;17297;54.022;10.760;2022-08-01T00:45:10;101128.50;;;21.76;71.24
30516;BME280;17297;54.022;10.760;2022-08-01T00:47:36;101127.41;;;21.77;71.46
30516;BME280;17297;54.022;10.760;2022-08-01T00:50:03;101123.63;;;21.78;71.60
30516;BME280;17297;54.022;10.760;2022-08-01T00:52:29;101125.25;;;21.79;71.19
30516;BME280;17297;54.022;10.760;2022-08-01T00:54:55;101134.28;;;21.79;71.69
30516;BME280;17297;54.022;10.760;2022-08-01T00:57:20;101129.91;;;21.78;71.49
30516;BME280;17297;54.022;10.760;2022-08-01T00:59:45;101119.50;;;21.80;71.61
30516;BME280;17297;54.022;10.760;2022-08-01T01:02:12;101115.13;;;21.79;71.65
30516;BME280;17297;54.022;10.760;2022-08-01T01:04:37;101118.69;;;21.80;71.43
30516;BME280;17297;54.022;10.760;2022-08-01T01:07:22;101115.94;;;21.80;71.26
30516;BME280;17297;54.022;10.760;2022-08-01T01:09:59;101113.47;;;21.78;71.42
30516;BME280;17297;54.022;10.760;2022-08-01T01:12:36;101106.09;;;21.79;71.50
30516;BME280;17297;54.022;10.760;2022-08-01T01:15:15;101108.81;;;21.79;71.40
30516;BME280;17297;54.022;10.760;2022-08-01T01:18:03;101106.91;;;21.79;71.53
30516;BME280;17297;54.022;10.760;2022-08-01T01:20:36;101108.81;;;21.79;71.69
30516;BME280;17297;54.022;10.760;2022-08-01T01:31:26;101112.66;;;21.78;71.46
30516;BME280;17297;54.022;10.760;2022-08-01T01:33:53;101112.66;;;21.78;71.52
30516;BME280;17297;54.022;10.760;2022-08-01T01:36:21;101104.44;;;21.78;71.69
30516;BME280;17297;54.022;10.760;2022-08-01T01:38:47;101110.75;;;21.78;71.51
30516;BME280;17297;54.022;10.760;2022-08-01T01:41:15;101105.50;;;21.77;71.65
30516;BME280;17297;54.022;10.760;2022-08-01T01:43:43;101102.53;;;21.78;71.67
30516;BME280;17297;54.022;10.760;2022-08-01T01:46:11;101110.75;;;21.78;71.60
30516;BME280;17297;54.022;10.760;2022-08-01T01:48:38;101104.44;;;21.78;71.47
30516;BME280;17297;54.022;10.760;2022-08-01T01:51:04;101108.00;;;21.78;71.85
30516;BME280;17297;54.022;10.760;2022-08-01T01:53:32;101113.47;;;21.78;71.61
30516;BME280;17297;54.022;10.760;2022-08-01T01:55:58;101115.13;;;21.79;71.40
30516;BME280;17297;54.022;10.760;2022-08-01T01:58:27;101115.41;;;21.78;71.62
30516;BME280;17297;54.022;10.760;2022-08-01T02:00:55;101110.97;;;21.77;71.62
30516;BME280;17297;54.022;10.760;2022-08-01T02:03:22;101120.88;;;21.78;71.61
30516;BME280;17297;54.022;10.760;2022-08-01T02:05:51;101113.72;;;21.77;71.77
30516;BME280;17297;54.022;10.760;2022-08-01T02:08:17;101120.03;;;21.77;71.68
30516;BME280;17297;54.022;10.760;2022-08-01T02:10:44;101125.50;;;21.77;72.00
30516;BME280;17297;54.022;10.760;2022-08-01T02:13:30;101125.50;;;21.77;71.80
30516;BME280;17297;54.022;10.760;2022-08-01T02:15:58;101135.63;;;21.77;71.77
30516;BME280;17297;54.022;10.760;2022-08-01T02:18:24;101126.59;;;21.76;71.66
30516;BME280;17297;54.022;10.760;2022-08-01T02:20:52;101128.25;;;21.77;71.86
30516;BME280;17297;54.022;10.760;2022-08-01T02:23:20;101126.59;;;21.76;72.00
30516;BME280;17297;54.022;10.760;2022-08-01T02:25:49;101130.44;;;21.75;72.14
30516;BME280;17297;54.022;10.760;2022-08-01T02:30:48;101126.88;;;21.75;71.68
30516;BME280;17297;54.022;10.760;2022-08-01T02:33:18;101123.28;;;21.74;71.91
30516;BME280;17297;54.022;10.760;2022-08-01T02:35:47;101121.38;;;21.75;71.85
30516;BME280;17297;54.022;10.760;2022-08-01T02:38:14;101126.88;;;21.75;72.15
30516;BME280;17297;54.022;10.760;2022-08-01T02:40:42;101125.19;;;21.74;72.00
30516;BME280;17297;54.022;10.760;2022-08-01T02:43:10;101126.88;;;21.75;71.96
30516;BME280;17297;54.022;10.760;2022-08-01T02:45:39;101123.28;;;21.74;72.07
30516;BME280;17297;54.022;10.760;2022-08-01T02:48:12;101126.88;;;21.75;72.27
30516;BME280;17297;54.022;10.760;2022-08-01T02:50:39;101127.69;;;21.75;72.06
30516;BME280;17297;54.022;10.760;2022-08-01T02:53:08;101121.38;;;21.75;72.08
30516;BME280;17297;54.022;10.760;2022-08-01T02:55:37;101127.69;;;21.75;72.63
30516;BME280;17297;54.022;10.760;2022-08-01T02:58:04;101130.44;;;21.75;72.26
30516;BME280;17297;54.022;10.760;2022-08-01T03:00:32;101133.97;;;21.76;72.36
30516;BME280;17297;54.022;10.760;2022-08-01T03:02:59;101133.16;;;21.75;72.36
30516;BME280;17297;54.022;10.760;2022-08-01T03:05:25;101128.50;;;21.76;72.47
30516;BME280;17297;54.022;10.760;2022-08-01T03:07:53;101132.34;;;21.75;72.12
30516;BME280;17297;54.022;10.760;2022-08-01T03:10:19;101137.81;;;21.75;72.24
30516;BME280;17297;54.022;10.760;2022-08-01T03:12:45;101138.88;;;21.74;72.55
30516;BME280;17297;54.022;10.760;2022-08-01T03:15:13;101135.06;;;21.75;72.33
30516;BME280;17297;54.022;10.760;2022-08-01T03:17:41;101143.53;;;21.73;72.51
30516;BME280;17297;54.022;10.760;2022-08-01T03:20:11;101147.09;;;21.74;72.15
30516;BME280;17297;54.022;10.760;2022-08-01T03:22:38;101146.28;;;21.73;72.47
30516;BME280;17297;54.022;10.760;2022-08-01T03:25:05;101148.19;;;21.73;72.33
30516;BME280;17297;54.022;10.760;2022-08-01T03:27:31;101143.81;;;21.72;72.40
30516;BME280;17297;54.022;10.760;2022-08-01T03:29:58;101148.19;;;21.73;72.56
30516;BME280;17297;54.022;10.760;2022-08-01T03:32:28;101152.84;;;21.72;72.58
30516;BME280;17297;54.022;10.760;2022-08-01T03:34:55;101155.59;;;21.72;72.59
30516;BME280;17297;54.022;10.760;2022-08-01T03:37:29;101151.44;;;21.70;72.53
30516;BME280;17297;54.022;10.760;2022-08-01T03:40:05;101150.63;;;21.69;72.41
30516;BME280;17297;54.022;10.760;2022-08-01T03:42:44;101144.31;;;21.68;72.61
30516;BME280;17297;54.022;10.760;2022-08-01T03:45:19;101147.31;;;21.67;72.49
30516;BME280;17297;54.022;10.760;2022-08-01T03:47:46;101147.56;;;21.65;72.45
30516;BME280;17297;54.022;10.760;2022-08-01T03:50:15;101154.94;;;21.65;72.61
30516;BME280;17297;54.022;10.760;2022-08-01T03:52:44;101151.38;;;21.64;72.64
30516;BME280;17297;54.022;10.760;2022-08-01T03:55:12;101154.09;;;21.64;72.65
30516;BME280;17297;54.022;10.760;2022-08-01T03:57:40;101158.75;;;21.64;72.29
30516;BME280;17297;54.022;10.760;2022-08-01T04:00:06;101167.81;;;21.64;72.43
30516;BME280;17297;54.022;10.760;2022-08-01T04:02:38;101162.59;;;21.63;72.59
30516;BME280;17297;54.022;10.760;2022-08-01T04:05:04;101168.63;;;21.65;72.36
30516;BME280;17297;54.022;10.760;2022-08-01T04:07:32;101159.84;;;21.63;72.60
30516;BME280;17297;54.022;10.760;2022-08-01T04:10:00;101174.09;;;21.65;72.46
30516;BME280;17297;54.022;10.760;2022-08-01T04:12:25;101167.25;;;21.62;72.54
30516;BME280;17297;54.022;10.760;2022-08-01T04:14:51;101179.03;;;21.63;72.27
30516;BME280;17297;54.022;10.760;2022-08-01T04:17:16;101175.47;;;21.62;72.68
30516;BME280;17297;54.022;10.760;2022-08-01T04:19:42;101177.34;;;21.62;72.39
30516;BME280;17297;54.022;10.760;2022-08-01T04:22:09;101169.41;;;21.60;72.60
30516;BME280;17297;54.022;10.760;2022-08-01T04:24:36;101176.53;;;21.61;72.40
30516;BME280;17297;54.022;10.760;2022-08-01T04:27:06;101187.47;;;21.61;72.52
30516;BME280;17297;54.022;10.760;2022-08-01T04:29:36;101190.22;;;21.61;72.29
30516;BME280;17297;54.022;10.760;2022-08-01T04:32:03;101185.84;;;21.60;72.52
30516;BME280;17297;54.022;10.760;2022-08-01T04:34:31;101189.38;;;21.61;72.77
30516;BME280;17297;54.022;10.760;2022-08-01T04:36:58;101200.34;;;21.61;72.35
30516;BME280;17297;54.022;10.760;2022-08-01T04:39:26;101206.09;;;21.59;72.66
30516;BME280;17297;54.022;10.760;2022-08-01T04:41:54;101209.66;;;21.60;72.46
30516;BME280;17297;54.022;10.760;2022-08-01T04:44:24;101211.56;;;21.59;72.75
30516;BME280;17297;54.022;10.760;2022-08-01T04:46:50;101212.38;;;21.60;72.64
30516;BME280;17297;54.022;10.760;2022-08-01T04:49:16;101212.38;;;21.60;72.82
30516;BME280;17297;54.022;10.760;2022-08-01T04:51:55;101219.78;;;21.59;72.82
30516;BME280;17297;54.022;10.760;2022-08-01T04:54:26;101219.78;;;21.59;72.41
30516;BME280;17297;54.022;10.760;2022-08-01T04:56:53;101226.31;;;21.58;72.68
30516;BME280;17297;54.022;10.760;2022-08-01T04:59:23;101228.22;;;21.58;72.63
30516;BME280;17297;54.022;10.760;2022-08-01T05:04:36;101236.44;;;21.58;72.62
30516;BME280;17297;54.022;10.760;2022-08-01T05:07:02;101230.13;;;21.57;72.73
30516;BME280;17297;54.022;10.760;2022-08-01T05:09:29;101233.69;;;21.58;72.58
30516;BME280;17297;54.022;10.760;2022-08-01T05:11:56;101236.44;;;21.58;72.59
30516;BME280;17297;54.022;10.760;2022-08-01T05:14:27;101234.53;;;21.58;72.73
30516;BME280;17297;54.022;10.760;2022-08-01T05:16:53;101238.94;;;21.59;72.57
30516;BME280;17297;54.022;10.760;2022-08-01T05:19:19;101238.94;;;21.59;72.49
30516;BME280;17297;54.022;10.760;2022-08-01T05:21:44;101250.72;;;21.60;72.57
30516;BME280;17297;54.022;10.760;2022-08-01T05:24:09;101250.72;;;21.60;72.76
30516;BME280;17297;54.022;10.760;2022-08-01T05:26:35;101257.81;;;21.61;72.92
30516;BME280;17297;54.022;10.760;2022-08-01T05:29:01;101257.00;;;21.60;72.84
30516;BME280;17297;54.022;10.760;2022-08-01T05:31:26;101255.34;;;21.59;72.72
30516;BME280;17297;54.022;10.760;2022-08-01T05:33:51;101260.84;;;21.59;72.68
30516;BME280;17297;54.022;10.760;2022-08-01T05:36:17;101258.91;;;21.60;72.57
30516;BME280;17297;54.022;10.760;2022-08-01T05:38:42;101258.34;;;21.58;72.61
30516;BME280;17297;54.022;10.760;2022-08-01T05:41:07;101258.34;;;21.58;72.83
30516;BME280;17297;54.022;10.760;2022-08-01T05:43:34;101251.22;;;21.57;72.84
30516;BME280;17297;54.022;10.760;2022-08-01T05:45:59;101251.22;;;21.57;72.67
30516;BME280;17297;54.022;10.760;2022-08-01T05:48:24;101247.66;;;21.56;72.75
30516;BME280;17297;54.022;10.760;2022-08-01T05:50:50;101253.13;;;21.56;72.56
30516;BME280;17297;54.022;10.760;2022-08-01T05:53:15;101254.78;;;21.57;72.70
30516;BME280;17297;54.022;10.760;2022-08-01T05:55:41;101262.16;;;21.57;72.53
30516;BME280;17297;54.022;10.760;2022-08-01T05:58:06;101262.75;;;21.59;72.72
30516;BME280;17297;54.022;10.760;2022-08-01T06:00:31;101254.78;;;21.57;72.93
30516;BME280;17297;54.022;10.760;2022-08-01T06:02:57;101260.84;;;21.59;72.52
30516;BME280;17297;54.022;10.760;2022-08-01T06:05:22;101263.56;;;21.59;72.84
30516;BME280;17297;54.022;10.760;2022-08-01T06:07:48;101262.75;;;21.59;72.83
30516;BME280;17297;54.022;10.760;2022-08-01T06:10:13;101265.22;;;21.60;72.66
30516;BME280;17297;54.022;10.760;2022-08-01T06:12:38;101263.31;;;21.61;72.87
30516;BME280;17297;54.022;10.760;2022-08-01T06:15:05;101267.44;;;21.63;72.51
30516;BME280;17297;54.022;10.760;2022-08-01T06:17:30;101267.44;;;21.63;72.87
30516;BME280;17297;54.022;10.760;2022-08-01T06:19:56;101264.72;;;21.63;72.81
30516;BME280;17297;54.022;10.760;2022-08-01T06:22:21;101269.09;;;21.64;72.56
30516;BME280;17297;54.022;10.760;2022-08-01T06:24:47;101274.31;;;21.66;72.79
30516;BME280;17297;54.022;10.760;2022-08-01T06:27:12;101280.63;;;21.66;72.92
30516;BME280;17297;54.022;10.760;2022-08-01T06:29:38;101289.94;;;21.65;72.85
30516;BME280;17297;54.022;10.760;2022-08-01T06:32:04;101286.09;;;21.66;72.91
30516;BME280;17297;54.022;10.760;2022-08-01T06:34:29;101292.16;;;21.68;72.62
30516;BME280;17297;54.022;10.760;2022-08-01T06:36:54;101288.56;;;21.68;72.95
30516;BME280;17297;54.022;10.760;2022-08-01T06:39:20;101291.88;;;21.70;72.87
30516;BME280;17297;54.022;10.760;2022-08-01T06:41:45;101300.69;;;21.72;72.82
30516;BME280;17297;54.022;10.760;2022-08-01T06:44:13;101299.88;;;21.72;72.68
30516;BME280;17297;54.022;10.760;2022-08-01T06:46:39;101311.38;;;21.74;72.85
30516;BME280;17297;54.022;10.760;2022-08-01T06:49:04;101307.56;;;21.75;72.68
30516;BME280;17297;54.022;10.760;2022-08-01T06:51:30;101311.97;;;21.76;72.66
30516;BME280;17297;54.022;10.760;2022-08-01T06:53:55;101311.97;;;21.76;72.65
30516;BME280;17297;54.022;10.760;2022-08-01T06:56:21;101311.13;;;21.75;72.67
30516;BME280;17297;54.022;10.760;2022-08-01T06:58:46;101309.22;;;21.76;72.90
30516;BME280;17297;54.022;10.760;2022-08-01T07:01:12;101310.31;;;21.75;72.97
30516;BME280;17297;54.022;10.760;2022-08-01T07:03:37;101313.06;;;21.75;72.82
30516;BME280;17297;54.022;10.760;2022-08-01T07:06:03;101311.13;;;21.75;73.07
30516;BME280;17297;54.022;10.760;2022-08-01T07:08:29;101311.97;;;21.76;72.60
30516;BME280;17297;54.022;10.760;2022-08-01T07:10:54;101318.03;;;21.78;72.60
30516;BME280;17297;54.022;10.760;2022-08-01T07:13:24;101320.16;;;21.76;72.81
30516;BME280;17297;54.022;10.760;2022-08-01T07:15:51;101310.03;;;21.76;73.14
30516;BME280;17297;54.022;10.760;2022-08-01T07:18:16;101316.34;;;21.77;72.78
30516;BME280;17297;54.022;10.760;2022-08-01T07:20:42;101316.34;;;21.77;72.76
30516;BME280;17297;54.022;10.760;2022-08-01T07:23:08;101313.59;;;21.77;72.78
30516;BME280;17297;54.022;10.760;2022-08-01T07:25:33;101319.66;;;21.79;72.70
30516;BME280;17297;54.022;10.760;2022-08-01T07:27:59;101315.84;;;21.80;73.03
30516;BME280;17297;54.022;10.760;2022-08-01T07:30:24;101330.09;;;21.82;72.78
30516;BME280;17297;54.022;10.760;2022-08-01T07:32:50;101329.03;;;21.83;72.72
30516;BME280;17297;54.022;10.760;2022-08-01T07:35:16;101327.97;;;21.84;72.73
30516;BME280;17297;54.022;10.760;2022-08-01T07:37:41;101333.16;;;21.85;73.00
30516;BME280;17297;54.022;10.760;2022-08-01T07:40:07;101333.16;;;21.85;73.09
30516;BME280;17297;54.022;10.760;2022-08-01T07:42:32;101334.00;;;21.86;72.70
30516;BME280;17297;54.022;10.760;2022-08-01T07:44:58;101341.16;;;21.87;72.65
30516;BME280;17297;54.022;10.760;2022-08-01T07:47:24;101345.75;;;21.86;72.60
30516;BME280;17297;54.022;10.760;2022-08-01T07:49:50;101346.84;;;21.85;72.85
30516;BME280;17297;54.022;10.760;2022-08-01T07:52:16;101348.78;;;21.85;72.96
30516;BME280;17297;54.022;10.760;2022-08-01T07:54:41;101352.59;;;21.84;72.43
30516;BME280;17297;54.022;10.760;2022-08-01T07:57:06;101349.00;;;21.83;72.75
30516;BME280;17297;54.022;10.760;2022-08-01T07:59:32;101353.94;;;21.81;72.76
30516;BME280;17297;54.022;10.760;2022-08-01T08:01:58;101356.66;;;21.81;72.45
30516;BME280;17297;54.022;10.760;2022-08-01T08:04:24;101373.34;;;21.80;72.60
30516;BME280;17297;54.022;10.760;2022-08-01T08:06:50;101372.78;;;21.78;72.47
30516;BME280;17297;54.022;10.760;2022-08-01T08:09:16;101378.50;;;21.76;72.15
30516;BME280;17297;54.022;10.760;2022-08-01T08:11:45;101385.28;;;21.74;72.50
30516;BME280;17297;54.022;10.760;2022-08-01T08:14:11;101382.56;;;21.74;72.27
30516;BME280;17297;54.022;10.760;2022-08-01T08:16:37;101377.59;;;21.71;72.09
30516;BME280;17297;54.022;10.760;2022-08-01T08:19:02;101384.38;;;21.68;71.97
30516;BME280;17297;54.022;10.760;2022-08-01T08:21:27;101385.75;;;21.65;72.18
30516;BME280;17297;54.022;10.760;2022-08-01T08:23:53;101384.91;;;21.65;72.43
30516;BME280;17297;54.022;10.760;2022-08-01T08:26:37;101394.47;;;21.62;72.09
30516;BME280;17297;54.022;10.760;2022-08-01T08:29:03;101390.03;;;21.61;72.23
30516;BME280;17297;54.022;10.760;2022-08-01T08:31:28;101391.72;;;21.62;72.05
30516;BME280;17297;54.022;10.760;2022-08-01T08:33:53;101395.84;;;21.65;72.40
30516;BME280;17297;54.022;10.760;2022-08-01T08:36:21;101394.53;;;21.67;72.20
30516;BME280;17297;54.022;10.760;2022-08-01T08:38:47;101397.94;;;21.75;72.35
30516;BME280;17297;54.022;10.760;2022-08-01T08:41:12;101400.47;;;21.81;72.29
30516;BME280;17297;54.022;10.760;2022-08-01T08:43:39;101404.69;;;21.89;71.99
30516;BME280;17297;54.022;10.760;2022-08-01T08:46:05;101405.59;;;21.95;72.07
30516;BME280;17297;54.022;10.760;2022-08-01T08:48:31;101406.22;;;22.02;72.30
30516;BME280;17297;54.022;10.760;2022-08-01T08:50:56;101412.03;;;22.05;72.04
30516;BME280;17297;54.022;10.760;2022-08-01T08:53:23;101416.16;;;22.08;71.71
30516;BME280;17297;54.022;10.760;2022-08-01T08:55:49;101427.41;;;22.06;71.74
30516;BME280;17297;54.022;10.760;2022-08-01T08:58:17;101428.72;;;22.04;71.40
30516;BME280;17297;54.022;10.760;2022-08-01T09:00:43;101435.81;;;22.00;71.20
30516;BME280;17297;54.022;10.760;2022-08-01T09:03:08;101438.19;;;21.96;71.26
30516;BME280;17297;54.022;10.760;2022-08-01T09:05:34;101437.88;;;21.92;71.40
30516;BME280;17297;54.022;10.760;2022-08-01T09:07:59;101441.69;;;21.91;71.05
30516;BME280;17297;54.022;10.760;2022-08-01T09:10:25;101444.44;;;21.91;71.07
30516;BME280;17297;54.022;10.760;2022-08-01T09:13:11;101456.22;;;21.92;71.11
30516;BME280;17297;54.022;10.760;2022-08-01T09:15:50;101459.78;;;21.92;71.09
30516;BME280;17297;54.022;10.760;2022-08-01T09:18:33;101465.53;;;21.91;71.10
30516;BME280;17297;54.022;10.760;2022-08-01T09:21:14;101464.38;;;21.87;70.97
30516;BME280;17297;54.022;10.760;2022-08-01T09:23:48;101472.00;;;21.85;71.10
30516;BME280;17297;54.022;10.760;2022-08-01T09:26:16;101470.34;;;21.84;70.40
30516;BME280;17297;54.022;10.760;2022-08-01T09:28:42;101472.00;;;21.85;70.65
30516;BME280;17297;54.022;10.760;2022-08-01T09:31:12;101479.13;;;21.86;70.35
30516;BME280;17297;54.022;10.760;2022-08-01T09:39:12;101487.91;;;22.05;70.16
30516;BME280;17297;54.022;10.760;2022-08-01T09:41:38;101490.47;;;22.11;69.96
30516;BME280;17297;54.022;10.760;2022-08-01T09:44:04;101495.81;;;22.18;69.17
30516;BME280;17297;54.022;10.760;2022-08-01T09:46:29;101492.06;;;22.24;69.00
30516;BME280;17297;54.022;10.760;2022-08-01T09:49:01;101488.06;;;22.32;68.92
30516;BME280;17297;54.022;10.760;2022-08-01T09:51:31;101486.53;;;22.41;69.05
30516;BME280;17297;54.022;10.760;2022-08-01T09:53:58;101484.72;;;22.52;68.72
30516;BME280;17297;54.022;10.760;2022-08-01T09:56:24;101495.50;;;22.58;68.38
30516;BME280;17297;54.022;10.760;2022-08-01T10:01:20;101494.81;;;22.68;68.06
30516;BME280;17297;54.022;10.760;2022-08-01T10:03:46;101501.19;;;22.74;67.71
30516;BME280;17297;54.022;10.760;2022-08-01T10:06:21;101500.44;;;22.78;67.87
30516;BME280;17297;54.022;10.760;2022-08-01T10:08:48;101508.44;;;22.85;67.58
30516;BME280;17297;54.022;10.760;2022-08-01T10:11:14;101503.84;;;22.91;67.54
30516;BME280;17297;54.022;10.760;2022-08-01T10:13:40;101498.72;;;22.94;67.54
30516;BME280;17297;54.022;10.760;2022-08-01T10:16:06;101503.09;;;22.95;67.44
30516;BME280;17297;54.022;10.760;2022-08-01T10:18:34;101503.38;;;22.94;66.99
30516;BME280;17297;54.022;10.760;2022-08-01T10:21:01;101505.78;;;22.90;66.95
30516;BME280;17297;54.022;10.760;2022-08-01T10:23:27;101508.53;;;22.90;66.72
30516;BME280;17297;54.022;10.760;2022-08-01T10:25:55;101504.69;;;22.91;66.75
30516;BME280;17297;54.022;10.760;2022-08-01T10:28:23;101508.59;;;22.95;66.35
30516;BME280;17297;54.022;10.760;2022-08-01T10:30:50;101504.50;;;22.98;65.76
30516;BME280;17297;54.022;10.760;2022-08-01T10:33:17;101511.09;;;22.97;65.85
30516;BME280;17297;54.022;10.760;2022-08-01T10:35:45;101515.75;;;22.96;66.03
30516;BME280;17297;54.022;10.760;2022-08-01T10:38:11;101524.53;;;22.98;66.22
30516;BME280;17297;54.022;10.760;2022-08-01T10:40:37;101519.88;;;22.99;65.76
30516;BME280;17297;54.022;10.760;2022-08-01T10:43:03;101517.13;;;22.99;65.45
30516;BME280;17297;54.022;10.760;2022-08-01T10:45:29;101517.41;;;22.97;65.36
30516;BME280;17297;54.022;10.760;2022-08-01T10:48:08;101519.06;;;22.98;65.64
30516;BME280;17297;54.022;10.760;2022-08-01T10:53:06;101521.94;;;23.09;64.89
30516;BME280;17297;54.022;10.760;2022-08-01T10:58:10;101520.63;;;23.16;64.83
30516;BME280;17297;54.022;10.760;2022-08-01T11:00:35;101524.50;;;23.20;64.07
30516;BME280;17297;54.022;10.760;2022-08-01T11:03:02;101525.66;;;23.24;64.41
30516;BME280;17297;54.022;10.760;2022-08-01T11:05:33;101532.00;;;23.30;64.17
30516;BME280;17297;54.022;10.760;2022-08-01T11:08:22;101529.31;;;23.35;63.96
30516;BME280;17297;54.022;10.760;2022-08-01T11:10:47;101535.94;;;23.39;63.50
30516;BME280;17297;54.022;10.760;2022-08-01T11:13:13;101534.34;;;23.43;63.74
30516;BME280;17297;54.022;10.760;2022-08-01T11:15:40;101531.91;;;23.47;63.15
30516;BME280;17297;54.022;10.760;2022-08-01T11:20:58;101527.84;;;23.55;62.48
30516;BME280;17297;54.022;10.760;2022-08-01T11:23:25;101522.94;;;23.57;62.49
30516;BME280;17297;54.022;10.760;2022-08-01T11:28:25;101533.97;;;23.62;61.92
30516;BME280;17297;54.022;10.760;2022-08-01T11:30:56;101529.84;;;23.64;61.54
30516;BME280;17297;54.022;10.760;2022-08-01T11:38:49;101527.38;;;23.63;60.36
30516;BME280;17297;54.022;10.760;2022-08-01T11:49:43;101521.59;;;23.59;60.77
30516;BME280;17297;54.022;10.760;2022-08-01T11:52:10;101529.84;;;23.59;60.47
30516;BME280;17297;54.022;10.760;2022-08-01T11:54:38;101531.22;;;23.62;60.32
30516;BME280;17297;54.022;10.760;2022-08-01T11:57:09;101526.88;;;23.66;60.14
30516;BME280;17297;54.022;10.760;2022-08-01T11:59:40;101529.13;;;23.69;59.48
30516;BME280;17297;54.022;10.760;2022-08-01T12:02:21;101530.50;;;23.71;59.62
30516;BME280;17297;54.022;10.760;2022-08-01T12:05:11;101534.66;;;23.74;59.68
30516;BME280;17297;54.022;10.760;2022-08-01T12:07:40;101526.16;;;23.76;58.97
30516;BME280;17297;54.022;10.760;2022-08-01T12:10:16;101530.00;;;23.74;58.65
30516;BME280;17297;54.022;10.760;2022-08-01T12:12:45;101536.88;;;23.77;58.47
30516;BME280;17297;54.022;10.760;2022-08-01T12:15:11;101537.72;;;23.78;58.51
30516;BME280;17297;54.022;10.760;2022-08-01T12:17:37;101536.59;;;23.79;57.72
30516;BME280;17297;54.022;10.760;2022-08-01T12:20:06;101543.75;;;23.80;58.17
30516;BME280;17297;54.022;10.760;2022-08-01T12:22:32;101538.00;;;23.81;57.77
30516;BME280;17297;54.022;10.760;2022-08-01T12:25:06;101532.50;;;23.81;57.88
30516;BME280;17297;54.022;10.760;2022-08-01T12:27:33;101529.25;;;23.84;58.02
30516;BME280;17297;54.022;10.760;2022-08-01T12:29:59;101533.38;;;23.87;57.50
30516;BME280;17297;54.022;10.760;2022-08-01T12:32:30;101537.50;;;23.89;57.14
30516;BME280;17297;54.022;10.760;2022-08-01T12:35:01;101542.75;;;23.91;57.23
30516;BME280;17297;54.022;10.760;2022-08-01T12:37:27;101538.38;;;23.95;57.06
30516;BME280;17297;54.022;10.760;2022-08-01T12:39:53;101534.28;;;23.97;57.19
30516;BME280;17297;54.022;10.760;2022-08-01T12:42:18;101535.09;;;23.98;56.56
30516;BME280;17297;54.022;10.760;2022-08-01T12:44:46;101535.09;;;23.98;56.56
30516;BME280;17297;54.022;10.760;2022-08-01T12:47:13;101540.34;;;24.00;56.75
30516;BME280;17297;54.022;10.760;2022-08-01T12:49:41;101533.19;;;23.98;56.42
30516;BME280;17297;54.022;10.760;2022-08-01T12:52:08;101539.00;;;24.02;56.01
30516;BME280;17297;54.022;10.760;2022-08-01T12:54:59;101542.56;;;24.03;56.33
30516;BME280;17297;54.022;10.760;2022-08-01T12:57:24;101537.63;;;24.05;55.74
30516;BME280;17297;54.022;10.760;2022-08-01T12:59:52;101540.94;;;24.07;55.52
30516;BME280;17297;54.022;10.760;2022-08-01T13:02:18;101538.78;;;24.09;55.42
30516;BME280;17297;54.022;10.760;2022-08-01T13:04:51;101545.91;;;24.10;55.08
30516;BME280;17297;54.022;10.760;2022-08-01T13:07:17;101540.16;;;24.11;54.72
30516;BME280;17297;54.022;10.760;2022-08-01T13:09:50;101543.72;;;24.12;54.26
30516;BME280;17297;54.022;10.760;2022-08-01T13:12:16;101551.69;;;24.13;54.27
30516;BME280;17297;54.022;10.760;2022-08-01T13:14:41;101544.59;;;24.17;54.11
30516;BME280;17297;54.022;10.760;2022-08-01T13:17:07;101545.16;;;24.19;54.02
30516;BME280;17297;54.022;10.760;2022-08-01T13:19:45;101550.66;;;24.19;54.05
30516;BME280;17297;54.022;10.760;2022-08-01T13:22:12;101547.91;;;24.19;53.88
30516;BME280;17297;54.022;10.760;2022-08-01T13:24:37;101536.91;;;24.19;53.79
30516;BME280;17297;54.022;10.760;2022-08-01T13:27:04;101539.66;;;24.19;53.81
30516;BME280;17297;54.022;10.760;2022-08-01T13:29:37;101538.25;;;24.17;53.96